ePrivacy and GPDR Cookie Consent by Cookie Consent
EmailTwitter


Surface observations / United Kingdom / EGTE (03839)

Regions: Quebec | Canada | USA | Europe | France | UK | Elsewhere
Station
Display
Info & Location for EGTE (03839) | Help decoding METAR

Weather Conditions observed on 2022/08/14 at 17:50 UTC at EXETER AIRPORT, UK (EGTE)

Temperature: 27.0 Celsius.

Dewpoint: 9.0 Celsius.

Relative Humidity: 32%

Humidex 28.

Winds: South at 13 km/h or 7 knots.

Mean Sea level Pressure: 100.40 kilopascals.

Coded METAR:

EGTE 141750Z 19007KT CAVOK 27/09 Q1004=